Dragonera — 9HA2475 — position and weather

sailwx.info

Track history (hours):
 
Tides and Currents Weather Stations Pressure Air Temp Water Temp Dewpoint Dewpoint Depression Visibility Wind Speed Wind Dir Waves Ship Positions

Dragonera

Last reported at 2014-Sep-29 14:09 UTC. Time now 2014-Sep-30 17:56 UTC.
Position N 50°28' W 000°25'.

Length 180 m; draft 9.4 m.

Type: Cargo ship. MMSI: 248698000.

Date/timePositionNaut miles runAvg speedWind from/ knotsBaromVisibWave heightAir tempDewpointWater temp
2014-Sep-29 14:09N 50°28' W 000°25'2411.3
2014-Sep-29 12:04N 50°34' E 000°11'510.1
2014-Sep-29 11:33N 50°35' E 000°19'1010.1
2014-Sep-29 10:33N 50°37' E 000°35'1111.6
2014-Sep-29 09:33N 50°44' E 000°49'1513.2
2014-Sep-29 08:26N 50°53' E 001°08'1313.7
2014-Sep-29 07:30N 51°02' E 001°23'1212.7
2014-Sep-29 06:33N 51°09' E 001°38'1111.4
2014-Sep-29 05:34N 51°18' E 001°49'1110.7
2014-Sep-29 04:34N 51°28' E 001°57'1110.9
2014-Sep-29 03:33N 51°36' E 002°09'1111.1
2014-Sep-29 02:33N 51°44' E 002°21'1212.0
2014-Sep-29 01:34N 51°53' E 002°33'1312.6
2014-Sep-29 00:33N 52°06' E 002°39'1413.7
2014-Sep-28 23:33N 52°19' E 002°44'1414.1
2014-Sep-28 22:34N 52°31' E 002°54'1413.7
2014-Sep-28 21:33N 52°43' E 003°05'1312.8
2014-Sep-28 20:33N 52°55' E 003°15'3611.4
2014-Sep-28 17:26N 53°29' E 003°33'1011.8
2014-Sep-28 16:33N 53°39' E 003°38'2512.4
2014-Sep-28 14:33N 53°56' E 004°08'1312.5
2014-Sep-28 13:33N 54°05' E 004°22'1212.4
2014-Sep-28 12:33N 54°15' E 004°33'1412.1
2014-Sep-28 11:26N 54°26' E 004°47'1311.9
2014-Sep-28 10:22N 54°37' E 004°60'14011.8
2014-Sep-27 22:27N 56°32' E 007°21'1011.2
2014-Sep-27 21:34N 56°40' E 007°31'1110.8
2014-Sep-27 20:32N 56°49' E 007°43'110 8.9
2014-Sep-27 08:12N 57°49' E 010°35'5 8.2
2014-Sep-27 07:33N 57°49' E 010°45'9 9.4
2014-Sep-27 06:33N 57°43' E 010°57'9 9.1
2014-Sep-27 05:33N 57°36' E 011°10'1010.2
2014-Sep-27 04:33N 57°29' E 011°24'1010.3
2014-Sep-27 03:33N 57°20' E 011°31'1110.9
2014-Sep-27 02:33N 57°10' E 011°38'1110.7
2014-Sep-27 01:33N 56°60' E 011°45'1110.5
2014-Sep-27 00:33N 56°50' E 011°51'10 9.9
2014-Sep-26 23:33N 56°40' E 011°48'126 9.6
2014-Sep-26 10:22N 54°37' E 010°58'810.3
2014-Sep-26 09:33N 54°37' E 011°12'1110.9
2014-Sep-26 08:33N 54°31' E 011°29'1110.9
2014-Sep-26 07:33N 54°26' E 011°45'1111.0
2014-Sep-26 06:33N 54°26' E 012°04'10 9.9
2014-Sep-26 05:33N 54°34' E 012°15'1110.9
2014-Sep-26 04:33N 54°41' E 012°29'1411.4
2014-Sep-26 03:21N 54°49' E 012°49'1012.1
2014-Sep-26 02:31N 54°52' E 013°06'1212.2
2014-Sep-26 01:33N 54°56' E 013°25'1212.0
2014-Sep-26 00:33N 55°00' E 013°44'1212.0
2014-Sep-25 23:33N 55°04' E 014°04'1212.3
2014-Sep-25 22:34N 55°14' E 014°17'1712.2
2014-Sep-25 21:10N 55°27' E 014°36'712.1
2014-Sep-25 20:33N 55°30' E 014°48'1212.0
2014-Sep-25 19:34N 55°35' E 015°07'1211.7
2014-Sep-25 18:33N 55°39' E 015°27'  
2014-Sep-21 14:31N 55°40' E 019°42'5613.3
2014-Sep-21 10:18N 55°49' E 018°04'6512.9
2014-Sep-21 05:17N 55°40' E 016°09'1213.3
2014-Sep-21 04:24N 55°38' E 015°49'1213.0
2014-Sep-21 03:28N 55°35' E 015°28'1413.2
2014-Sep-21 02:26N 55°30' E 015°06'1213.3
2014-Sep-21 01:33N 55°26' E 014°47'1313.0
2014-Sep-21 00:33N 55°18' E 014°29'1212.2
2014-Sep-20 23:33N 55°10' E 014°12'1313.0
2014-Sep-20 22:33N 55°10' E 013°50'2613.0
2014-Sep-20 20:33N 55°11' E 013°04'1313.1
2014-Sep-20 19:33N 55°11' E 012°41'1211.7
2014-Sep-20 18:33N 55°22' E 012°39'1110.7
2014-Sep-20 17:34N 55°33' E 012°42'10 9.8
2014-Sep-20 16:34N 55°43' E 012°41'1312.8
2014-Sep-20 15:34N 55°55' E 012°38'1111.3
2014-Sep-20 14:34N 56°06' E 012°32'1110.7
2014-Sep-20 13:33N 56°12' E 012°16'1211.7
2014-Sep-20 12:33N 56°12' E 011°55'0 0.2
2014-Sep-20 11:31N 56°11' E 011°55'0 0.0
2014-Sep-20 09:07N 56°11' E 011°55'0 0.0
2014-Sep-20 08:31N 56°11' E 011°55'0 0.0
2014-Sep-20 07:22N 56°11' E 011°55'0 0.0
2014-Sep-20 06:31N 56°11' E 011°55'0 0.0
2014-Sep-20 05:31N 56°11' E 011°55'0 0.0
2014-Sep-20 04:25N 56°11' E 011°55'0 0.0
2014-Sep-20 03:31N 56°11' E 011°55'0 0.1
2014-Sep-20 02:28N 56°11' E 011°55'2 2.2
2014-Sep-20 01:33N 56°13' E 011°55'1211.6
2014-Sep-20 00:33N 56°25' E 011°55'1312.8
2014-Sep-19 23:33N 56°38' E 011°53'1312.6
2014-Sep-19 22:32N 56°50' E 011°49'1212.6
2014-Sep-19 21:33N 57°02' E 011°41'1212.3
2014-Sep-19 20:33N 57°14' E 011°33'1312.7
2014-Sep-19 19:33N 57°26' E 011°26'1212.4
2014-Sep-19 18:33N 57°35' E 011°10'1312.8
2014-Sep-19 17:33N 57°43' E 010°53'1111.3
2014-Sep-19 16:33N 57°47' E 010°33'  
Track history (hours):
 
Tides and Currents Weather Stations Pressure Air Temp Water Temp Dewpoint Dewpoint Depression Visibility Wind Speed Wind Dir Waves Ship Positions

Dragonera

Last reported at 2014-Sep-29 14:09 UTC. Time now 2014-Sep-30 17:56 UTC.
Position N 50°28' W 000°25'.

Length 180 m; draft 9.4 m.

Type: Cargo ship. MMSI: 248698000.

Date/timePositionNaut miles runAvg speedWind from/ knotsBaromVisibWave heightAir tempDewpointWater temp
2014-Sep-29 14:09N 50°28' W 000°25'2411.3
2014-Sep-29 12:04N 50°34' E 000°11'510.1
2014-Sep-29 11:33N 50°35' E 000°19'1010.1
2014-Sep-29 10:33N 50°37' E 000°35'1111.6
2014-Sep-29 09:33N 50°44' E 000°49'1513.2
2014-Sep-29 08:26N 50°53' E 001°08'1313.7
2014-Sep-29 07:30N 51°02' E 001°23'1212.7
2014-Sep-29 06:33N 51°09' E 001°38'1111.4
2014-Sep-29 05:34N 51°18' E 001°49'1110.7
2014-Sep-29 04:34N 51°28' E 001°57'1110.9
2014-Sep-29 03:33N 51°36' E 002°09'1111.1
2014-Sep-29 02:33N 51°44' E 002°21'1212.0
2014-Sep-29 01:34N 51°53' E 002°33'1312.6
2014-Sep-29 00:33N 52°06' E 002°39'1413.7
2014-Sep-28 23:33N 52°19' E 002°44'1414.1
2014-Sep-28 22:34N 52°31' E 002°54'1413.7
2014-Sep-28 21:33N 52°43' E 003°05'1312.8
2014-Sep-28 20:33N 52°55' E 003°15'3611.4
2014-Sep-28 17:26N 53°29' E 003°33'1011.8
2014-Sep-28 16:33N 53°39' E 003°38'2512.4
2014-Sep-28 14:33N 53°56' E 004°08'1312.5
2014-Sep-28 13:33N 54°05' E 004°22'1212.4
2014-Sep-28 12:33N 54°15' E 004°33'1412.1
2014-Sep-28 11:26N 54°26' E 004°47'1311.9
2014-Sep-28 10:22N 54°37' E 004°60'14011.8
2014-Sep-27 22:27N 56°32' E 007°21'1011.2
2014-Sep-27 21:34N 56°40' E 007°31'1110.8
2014-Sep-27 20:32N 56°49' E 007°43'110 8.9
2014-Sep-27 08:12N 57°49' E 010°35'5 8.2
2014-Sep-27 07:33N 57°49' E 010°45'9 9.4
2014-Sep-27 06:33N 57°43' E 010°57'9 9.1
2014-Sep-27 05:33N 57°36' E 011°10'1010.2
2014-Sep-27 04:33N 57°29' E 011°24'1010.3
2014-Sep-27 03:33N 57°20' E 011°31'1110.9
2014-Sep-27 02:33N 57°10' E 011°38'1110.7
2014-Sep-27 01:33N 56°60' E 011°45'1110.5
2014-Sep-27 00:33N 56°50' E 011°51'10 9.9
2014-Sep-26 23:33N 56°40' E 011°48'126 9.6
2014-Sep-26 10:22N 54°37' E 010°58'810.3
2014-Sep-26 09:33N 54°37' E 011°12'1110.9
2014-Sep-26 08:33N 54°31' E 011°29'1110.9
2014-Sep-26 07:33N 54°26' E 011°45'1111.0
2014-Sep-26 06:33N 54°26' E 012°04'10 9.9
2014-Sep-26 05:33N 54°34' E 012°15'1110.9
2014-Sep-26 04:33N 54°41' E 012°29'1411.4
2014-Sep-26 03:21N 54°49' E 012°49'1012.1
2014-Sep-26 02:31N 54°52' E 013°06'1212.2
2014-Sep-26 01:33N 54°56' E 013°25'1212.0
2014-Sep-26 00:33N 55°00' E 013°44'1212.0
2014-Sep-25 23:33N 55°04' E 014°04'1212.3
2014-Sep-25 22:34N 55°14' E 014°17'1712.2
2014-Sep-25 21:10N 55°27' E 014°36'712.1
2014-Sep-25 20:33N 55°30' E 014°48'1212.0
2014-Sep-25 19:34N 55°35' E 015°07'1211.7
2014-Sep-25 18:33N 55°39' E 015°27'  
2014-Sep-21 14:31N 55°40' E 019°42'5613.3
2014-Sep-21 10:18N 55°49' E 018°04'6512.9
2014-Sep-21 05:17N 55°40' E 016°09'1213.3
2014-Sep-21 04:24N 55°38' E 015°49'1213.0
2014-Sep-21 03:28N 55°35' E 015°28'1413.2
2014-Sep-21 02:26N 55°30' E 015°06'1213.3
2014-Sep-21 01:33N 55°26' E 014°47'1313.0
2014-Sep-21 00:33N 55°18' E 014°29'1212.2
2014-Sep-20 23:33N 55°10' E 014°12'1313.0
2014-Sep-20 22:33N 55°10' E 013°50'2613.0
2014-Sep-20 20:33N 55°11' E 013°04'1313.1
2014-Sep-20 19:33N 55°11' E 012°41'1211.7
2014-Sep-20 18:33N 55°22' E 012°39'1110.7
2014-Sep-20 17:34N 55°33' E 012°42'10 9.8
2014-Sep-20 16:34N 55°43' E 012°41'1312.8
2014-Sep-20 15:34N 55°55' E 012°38'1111.3
2014-Sep-20 14:34N 56°06' E 012°32'1110.7
2014-Sep-20 13:33N 56°12' E 012°16'1211.7
2014-Sep-20 12:33N 56°12' E 011°55'0 0.2
2014-Sep-20 11:31N 56°11' E 011°55'0 0.0
2014-Sep-20 09:07N 56°11' E 011°55'0 0.0
2014-Sep-20 08:31N 56°11' E 011°55'0 0.0
2014-Sep-20 07:22N 56°11' E 011°55'0 0.0
2014-Sep-20 06:31N 56°11' E 011°55'0 0.0
2014-Sep-20 05:31N 56°11' E 011°55'0 0.0
2014-Sep-20 04:25N 56°11' E 011°55'0 0.0
2014-Sep-20 03:31N 56°11' E 011°55'0 0.1
2014-Sep-20 02:28N 56°11' E 011°55'2 2.2
2014-Sep-20 01:33N 56°13' E 011°55'1211.6
2014-Sep-20 00:33N 56°25' E 011°55'1312.8
2014-Sep-19 23:33N 56°38' E 011°53'1312.6
2014-Sep-19 22:32N 56°50' E 011°49'1212.6
2014-Sep-19 21:33N 57°02' E 011°41'1212.3
2014-Sep-19 20:33N 57°14' E 011°33'1312.7
2014-Sep-19 19:33N 57°26' E 011°26'1212.4
2014-Sep-19 18:33N 57°35' E 011°10'1312.8
2014-Sep-19 17:33N 57°43' E 010°53'1111.3
2014-Sep-19 16:33N 57°47' E 010°33'  

Dump ship's entire track history